Time;durP1;ratioP1;P1;durP2;ratioP2;P2;SDS_P1;SDS_P2;PMS_P1;PMS_P2;Temp;Humidity;BMP_temperature;BMP_pressure;BME280_temperature;BME280_humidity;BME280_pressure;Samples;Min_cycle;Max_cycle;Signal;HPM_P1;HPM_P2
2024/01/08 00:00:22;;;;;;;;;;;;;;;-1.53;90.69;99072.81;6284400;28;19974;-72
2024/01/08 00:03:23;;;;;;;;;;;;;;;-1.28;89.85;99077.25;6273919;28;19924;-72
2024/01/08 00:06:24;;;;;;;;;;;;;;;-1.39;89.56;99089.53;6274185;28;19928;-72
2024/01/08 00:09:25;;;;;;;;;;;;;;;-1.56;88.54;99087.44;6274231;28;19986;-73
2024/01/08 00:12:25;;;;;;;;;;;;;;;-1.49;89.06;99087.19;6272849;28;20377;-72
2024/01/08 00:15:26;;;;;;;;;;;;;;;-1.44;89.36;99107.56;6274158;28;19924;-72
2024/01/08 00:18:29;;;;;;;;;;;;;;;-1.50;88.99;99103.44;6273769;28;20284;-72
2024/01/08 00:21:29;;;;;;;;;;;;;;;-1.42;89.31;99105.81;6276414;28;19920;-73
2024/01/08 00:24:30;;;;;;;;;;;;;;;-1.49;88.82;99111.94;6297444;28;20295;-72
2024/01/08 00:27:31;;;;;;;;;;;;;;;-1.57;89.25;99116.44;6297560;28;19920;-72
2024/01/08 00:30:32;;;;;;;;;;;;;;;-1.53;87.87;99121.41;6297326;28;19920;-73
2024/01/08 00:33:33;;;;;;;;;;;;;;;-1.41;86.60;99133.06;6297510;28;19920;-71
2024/01/08 00:36:34;;;;;;;;;;;;;;;-1.58;85.49;99125.84;6298521;28;19920;-72
2024/01/08 00:39:35;;;;;;;;;;;;;;;-1.56;87.16;99136.88;6283927;28;19920;-72
2024/01/08 00:42:36;;;;;;;;;;;;;;;-1.63;85.93;99117.44;6273585;28;19974;-72
2024/01/08 00:45:37;;;;;;;;;;;;;;;-1.55;86.07;99130.03;6271967;28;20368;-72
2024/01/08 00:48:38;;;;;;;;;;;;;;;-1.67;86.28;99129.47;6273158;28;19931;-72
2024/01/08 00:51:39;;;;;;;;;;;;;;;-1.39;86.20;99123.63;6305423;28;20011;-73
2024/01/08 00:54:39;;;;;;;;;;;;;;;-1.63;87.51;99135.34;6273389;28;19925;-72
2024/01/08 00:57:40;;;;;;;;;;;;;;;-1.45;87.67;99137.41;6273322;28;19927;-73
2024/01/08 01:00:41;;;;;;;;;;;;;;;-1.68;87.84;99137.19;6272965;28;19925;-73
2024/01/08 01:03:43;;;;;;;;;;;;;;;-1.74;86.83;99134.78;6272723;28;20406;-72
2024/01/08 01:06:44;;;;;;;;;;;;;;;-1.83;86.73;99146.09;6272604;28;19925;-72
2024/01/08 01:09:45;;;;;;;;;;;;;;;-2.10;85.69;99145.88;6271602;28;19920;-72
2024/01/08 01:12:45;;;;;;;;;;;;;;;-2.06;85.48;99147.50;6272727;28;19921;-72
2024/01/08 01:15:46;;;;;;;;;;;;;;;-2.14;84.37;99149.41;6272783;28;20289;-72
2024/01/08 01:18:47;;;;;;;;;;;;;;;-2.04;85.38;99150.84;6271224;28;19920;-71
2024/01/08 01:21:48;;;;;;;;;;;;;;;-1.83;84.90;99167.38;6291790;28;19924;-72
2024/01/08 01:24:48;;;;;;;;;;;;;;;-1.99;83.66;99168.63;6297296;28;20385;-72
2024/01/08 01:27:49;;;;;;;;;;;;;;;-2.13;84.33;99160.44;6297287;28;19927;-72
2024/01/08 01:30:50;;;;;;;;;;;;;;;-1.99;85.16;99168.63;6297051;28;19924;-72
2024/01/08 01:33:51;;;;;;;;;;;;;;;-1.76;84.76;99160.41;6297219;28;19972;-72
2024/01/08 01:36:51;;;;;;;;;;;;;;;-2.30;84.09;99181.28;6297103;28;19920;-72
2024/01/08 01:39:55;;;;;;;;;;;;;;;-2.25;83.65;99170.06;6295688;28;19928;-72
2024/01/08 01:42:58;;;;;;;;;;;;;;;-2.27;82.75;99173.53;6291219;28;19928;-72
2024/01/08 01:46:04;;;;;;;;;;;;;;;-2.25;82.64;99179.47;6295566;28;19920;-72
2024/01/08 01:49:05;;;;;;;;;;;;;;;-2.18;82.88;99188.69;6295839;28;19920;-72
2024/01/08 01:52:07;;;;;;;;;;;;;;;-2.48;82.10;99195.31;6295556;28;19996;-71
2024/01/08 01:55:10;;;;;;;;;;;;;;;-2.34;82.72;99188.19;6295585;28;19924;-72
2024/01/08 01:58:12;;;;;;;;;;;;;;;-2.32;82.72;99186.44;6295096;28;19926;-71
2024/01/08 02:01:12;;;;;;;;;;;;;;;-2.41;81.13;99190.91;6295292;28;19949;-72
2024/01/08 02:04:14;;;;;;;;;;;;;;;-2.15;81.24;99188.59;6295347;28;19920;-72
2024/01/08 02:07:16;;;;;;;;;;;;;;;-2.18;82.63;99200.59;6295711;28;19927;-72
2024/01/08 02:10:17;;;;;;;;;;;;;;;-2.43;81.40;99196.03;6296410;28;19920;-72
2024/01/08 02:13:18;;;;;;;;;;;;;;;-2.37;81.68;99200.16;6296540;28;20615;-72
2024/01/08 02:16:18;;;;;;;;;;;;;;;-2.52;82.01;99193.69;6296904;28;19928;-72
2024/01/08 02:19:19;;;;;;;;;;;;;;;-2.37;81.63;99200.16;6296156;28;20295;-72
2024/01/08 02:22:20;;;;;;;;;;;;;;;-2.38;81.82;99208.72;6296431;28;19921;-76
2024/01/08 02:25:21;;;;;;;;;;;;;;;-2.59;81.76;99199.78;6294854;28;20481;-76
2024/01/08 02:28:22;;;;;;;;;;;;;;;-2.57;82.32;99206.56;6294980;28;19964;-76
2024/01/08 02:31:23;;;;;;;;;;;;;;;-2.69;81.49;99200.00;6296347;28;20360;-72
2024/01/08 02:34:25;;;;;;;;;;;;;;;-2.73;82.07;99208.59;6296374;28;20283;-72
2024/01/08 02:37:26;;;;;;;;;;;;;;;-2.66;82.15;99210.16;6295064;28;19920;-72
2024/01/08 02:40:27;;;;;;;;;;;;;;;-2.56;82.15;99215.06;6295152;28;20295;-72
2024/01/08 02:43:28;;;;;;;;;;;;;;;-2.57;81.56;99221.03;6295254;28;19924;-76
2024/01/08 02:46:29;;;;;;;;;;;;;;;-2.65;81.66;99211.81;6296058;28;19924;-76
2024/01/08 02:49:29;;;;;;;;;;;;;;;-2.61;82.51;99220.28;6295754;28;20380;-76
2024/01/08 02:52:30;;;;;;;;;;;;;;;-2.51;81.66;99220.91;6294714;28;19974;-76
2024/01/08 02:55:31;;;;;;;;;;;;;;;-2.76;82.41;99225.69;6296197;28;19971;-76
2024/01/08 02:58:34;;;;;;;;;;;;;;;-2.66;82.43;99212.72;6295914;28;20047;-76
2024/01/08 03:01:36;;;;;;;;;;;;;;;-2.77;82.42;99229.13;6295972;28;19920;-72
2024/01/08 03:04:36;;;;;;;;;;;;;;;-2.68;81.81;99234.03;6295788;28;20403;-72
2024/01/08 03:07:37;;;;;;;;;;;;;;;-2.79;82.30;99235.97;6296097;28;19920;-72
2024/01/08 03:10:41;;;;;;;;;;;;;;;-2.97;81.77;99237.97;6297653;28;19931;-71
2024/01/08 03:13:42;;;;;;;;;;;;;;;-2.74;80.80;99231.59;6300200;28;19920;-72
2024/01/08 03:16:42;;;;;;;;;;;;;;;-2.72;81.13;99238.38;6300382;28;19927;-76
2024/01/08 03:19:43;;;;;;;;;;;;;;;-2.66;81.55;99239.94;6332124;28;19927;-76
2024/01/08 03:22:44;;;;;;;;;;;;;;;-2.65;82.50;99245.03;6300143;28;20053;-76
2024/01/08 03:25:45;;;;;;;;;;;;;;;-2.73;82.52;99241.78;6300090;28;19946;-76
2024/01/08 03:28:45;;;;;;;;;;;;;;;-2.90;81.23;99244.66;6300384;28;19927;-76
2024/01/08 03:31:46;;;;;;;;;;;;;;;-2.75;82.08;99250.34;6298749;28;19926;-76
2024/01/08 03:34:49;;;;;;;;;;;;;;;-2.57;80.63;99251.69;6300095;28;19921;-76
2024/01/08 03:37:50;;;;;;;;;;;;;;;-2.71;80.93;99240.03;6299716;28;20399;-75
2024/01/08 03:40:50;;;;;;;;;;;;;;;-2.46;80.80;99265.09;6298632;28;19924;-74
2024/01/08 03:43:51;;;;;;;;;;;;;;;-2.86;80.97;99260.78;6298754;28;19928;-74
2024/01/08 03:46:57;;;;;;;;;;;;;;;-2.93;80.13;99264.31;6298397;28;20335;-74
2024/01/08 03:49:58;;;;;;;;;;;;;;;-3.18;81.10;99261.38;6299805;28;20295;-75
2024/01/08 03:52:59;;;;;;;;;;;;;;;-3.07;80.91;99273.06;6331829;28;20031;-75
2024/01/08 03:56:02;;;;;;;;;;;;;;;-3.09;81.11;99277.38;6299796;28;19966;-74
2024/01/08 03:59:02;;;;;;;;;;;;;;;-3.12;80.59;99285.06;6297981;28;20288;-75
2024/01/08 04:02:03;;;;;;;;;;;;;;;-3.32;81.34;99285.41;6299354;28;19927;-75
2024/01/08 04:05:05;;;;;;;;;;;;;;;-3.41;80.40;99271.97;6299229;28;20329;-75
2024/01/08 04:08:06;;;;;;;;;;;;;;;-3.28;81.14;99265.78;6298044;28;20445;-70
2024/01/08 04:11:07;;;;;;;;;;;;;;;-3.02;80.87;99283.19;6299113;28;19920;-71
2024/01/08 04:14:08;;;;;;;;;;;;;;;-3.37;80.30;99279.53;6298936;28;19938;-70
2024/01/08 04:17:09;;;;;;;;;;;;;;;-3.19;79.75;99293.72;6285837;28;20007;-71
2024/01/08 04:20:10;;;;;;;;;;;;;;;-3.08;79.80;99301.16;6282628;28;19920;-70
2024/01/08 04:23:11;;;;;;;;;;;;;;;-3.07;79.86;99295.19;6298304;28;20022;-71
2024/01/08 04:26:15;;;;;;;;;;;;;;;-3.14;80.22;99314.03;6297562;28;19946;-71
2024/01/08 04:29:16;;;;;;;;;;;;;;;-3.22;80.69;99305.66;6297391;28;20400;-71
2024/01/08 04:32:17;;;;;;;;;;;;;;;-3.01;80.45;99323.16;6275237;28;19921;-71
2024/01/08 04:35:20;;;;;;;;;;;;;;;-2.90;80.94;99325.53;6273931;28;19931;-70
2024/01/08 04:38:21;;;;;;;;;;;;;;;-3.34;80.01;99319.47;6273564;28;19971;-70
2024/01/08 04:41:22;;;;;;;;;;;;;;;-3.21;79.85;99330.31;6272070;28;19928;-70
2024/01/08 04:44:23;;;;;;;;;;;;;;;-3.46;79.58;99325.59;6280842;28;19927;-70
2024/01/08 04:47:24;;;;;;;;;;;;;;;-3.56;78.79;99340.22;6298124;28;19920;-71
2024/01/08 04:50:25;;;;;;;;;;;;;;;-3.34;78.25;99347.53;6284591;28;19928;-70
2024/01/08 04:53:26;;;;;;;;;;;;;;;-3.18;78.16;99345.56;6320276;28;19925;-71
2024/01/08 04:56:30;;;;;;;;;;;;;;;-3.19;78.91;99337.09;6291221;28;19924;-70
2024/01/08 04:59:30;;;;;;;;;;;;;;;-3.24;78.58;99343.97;6273222;28;20380;-70
2024/01/08 05:02:31;;;;;;;;;;;;;;;-3.32;77.87;99358.53;6273499;28;19925;-70
2024/01/08 05:05:32;;;;;;;;;;;;;;;-3.50;78.25;99342.66;6297703;28;19994;-71
2024/01/08 05:08:33;;;;;;;;;;;;;;;-3.32;77.74;99356.00;6285495;28;19995;-70
2024/01/08 05:11:33;;;;;;;;;;;;;;;-3.23;77.82;99368.63;6272738;28;19928;-70
2024/01/08 05:14:34;;;;;;;;;;;;;;;-3.62;78.26;99352.19;6272501;28;19955;-70
2024/01/08 05:17:35;;;;;;;;;;;;;;;-3.58;78.09;99377.66;6272696;28;19967;-70
2024/01/08 05:20:36;;;;;;;;;;;;;;;-3.40;78.70;99380.78;6273514;28;19924;-70
2024/01/08 05:23:37;;;;;;;;;;;;;;;-3.52;77.71;99381.78;6295819;28;19928;-71
2024/01/08 05:26:37;;;;;;;;;;;;;;;-3.45;78.05;99386.78;6280482;28;19921;-71
2024/01/08 05:29:38;;;;;;;;;;;;;;;-3.30;78.08;99395.09;6296176;28;19931;-71
2024/01/08 05:32:39;;;;;;;;;;;;;;;-3.31;78.42;99398.50;6294970;28;19924;-70
2024/01/08 05:35:40;;;;;;;;;;;;;;;-3.55;77.48;99394.59;6271904;28;19921;-71
2024/01/08 05:38:41;;;;;;;;;;;;;;;-3.48;78.28;99399.59;6272239;28;20360;-70
2024/01/08 05:41:42;;;;;;;;;;;;;;;-3.78;77.96;99397.47;6273477;28;19971;-70
2024/01/08 05:44:43;;;;;;;;;;;;;;;-3.58;77.80;99412.47;6285423;28;20326;-70
2024/01/08 05:47:44;;;;;;;;;;;;;;;-3.83;78.32;99410.25;6296705;28;19955;-70
2024/01/08 05:50:46;;;;;;;;;;;;;;;-3.83;77.16;99409.41;6296682;28;20288;-70
2024/01/08 05:53:47;;;;;;;;;;;;;;;-3.79;77.04;99418.72;6281918;28;20434;-71
2024/01/08 05:56:50;;;;;;;;;;;;;;;-3.79;77.35;99405.97;6278554;28;19924;-71
2024/01/08 05:59:50;;;;;;;;;;;;;;;-3.75;77.23;99416.09;6280840;28;20010;-72
2024/01/08 06:02:51;;;;;;;;;;;;;;;-3.76;77.25;99426.34;6292521;28;19921;-70
2024/01/08 06:05:52;;;;;;;;;;;;;;;-3.97;77.00;99409.63;6292530;28;19921;-71
2024/01/08 06:08:53;;;;;;;;;;;;;;;-4.08;76.97;99408.03;6293510;28;19965;-70
2024/01/08 06:11:58;;;;;;;;;;;;;;;-4.01;76.45;99426.63;6294557;28;19966;-70
2024/01/08 06:14:59;;;;;;;;;;;;;;;-3.94;76.97;99443.53;6277129;28;20031;-70
2024/01/08 06:18:00;;;;;;;;;;;;;;;-4.24;76.23;99447.28;6294567;28;19967;-71
2024/01/08 06:21:01;;;;;;;;;;;;;;;-3.94;76.98;99458.81;6295876;28;19920;-71
2024/01/08 06:24:02;;;;;;;;;;;;;;;-3.95;76.63;99461.41;6283470;28;19958;-70
2024/01/08 06:27:03;;;;;;;;;;;;;;;-3.97;76.24;99463.97;6281334;28;19924;-71
2024/01/08 06:30:04;;;;;;;;;;;;;;;-3.90;76.24;99457.94;6268642;28;20461;-70
2024/01/08 06:33:05;;;;;;;;;;;;;;;-3.97;76.73;99468.22;6270162;28;19948;-71
2024/01/08 06:36:06;;;;;;;;;;;;;;;-4.06;76.18;99466.59;6270560;28;20387;-70
2024/01/08 06:39:09;;;;;;;;;;;;;;;-3.98;76.36;99481.81;6269364;28;19921;-70
2024/01/08 06:42:10;;;;;;;;;;;;;;;-4.00;75.72;99486.09;6270787;28;20321;-71
2024/01/08 06:45:12;;;;;;;;;;;;;;;-4.02;75.78;99487.81;6272083;28;19927;-70
2024/01/08 06:48:15;;;;;;;;;;;;;;;-3.93;76.04;99491.13;6275841;28;19920;-70
2024/01/08 06:51:16;;;;;;;;;;;;;;;-4.06;75.92;99500.59;6276111;28;19928;-70
2024/01/08 06:54:16;;;;;;;;;;;;;;;-4.01;76.34;99504.81;6274558;28;20284;-71
2024/01/08 06:57:17;;;;;;;;;;;;;;;-3.91;75.58;99502.13;6274411;28;20016;-70
2024/01/08 07:00:18;;;;;;;;;;;;;;;-4.17;75.26;99519.41;6275574;28;20381;-70
2024/01/08 07:03:19;;;;;;;;;;;;;;;-4.24;75.09;99521.16;6274259;28;20439;-71
2024/01/08 07:06:20;;;;;;;;;;;;;;;-4.12;75.29;99525.28;6275465;28;19928;-70
2024/01/08 07:09:21;;;;;;;;;;;;;;;-4.20;75.02;99524.50;6275602;28;19920;-70
2024/01/08 07:12:21;;;;;;;;;;;;;;;-4.13;75.46;99529.53;6274026;28;19986;-70
2024/01/08 07:15:37;;;;;;;;;;;;;;;-3.88;74.95;99550.53;6275387;28;19921;-75
2024/01/08 07:18:38;;;;;;;;;;;;;;;-4.05;74.90;99545.59;6275492;28;19967;-75
2024/01/08 07:21:39;;;;;;;;;;;;;;;-3.99;74.82;99539.59;6274997;28;19924;-74
2024/01/08 07:24:40;;;;;;;;;;;;;;;-4.01;74.71;99523.47;6275640;28;19920;-74
2024/01/08 07:27:41;;;;;;;;;;;;;;;-3.90;74.78;99541.22;6273880;28;19924;-74
2024/01/08 07:30:42;;;;;;;;;;;;;;;-3.86;74.30;99556.44;6275207;28;19924;-74
2024/01/08 07:33:42;;;;;;;;;;;;;;;-3.89;74.37;99555.63;6274660;28;19921;-74
2024/01/08 07:36:43;;;;;;;;;;;;;;;-3.80;74.97;99570.84;6275173;28;20003;-74
2024/01/08 07:39:44;;;;;;;;;;;;;;;-3.67;74.58;99551.16;6274847;28;19921;-74
2024/01/08 07:42:45;;;;;;;;;;;;;;;-3.66;73.54;99583.47;6273746;28;19921;-75
2024/01/08 07:45:46;;;;;;;;;;;;;;;-3.60;73.42;99583.41;6274694;28;19920;-75
2024/01/08 07:48:47;;;;;;;;;;;;;;;-3.51;73.21;99580.72;6275062;28;20019;-75
2024/01/08 07:51:48;;;;;;;;;;;;;;;-3.40;72.52;99583.16;6274436;28;19924;-74
2024/01/08 07:54:49;;;;;;;;;;;;;;;-3.29;72.37;99586.44;6273288;28;20344;-74
2024/01/08 07:57:49;;;;;;;;;;;;;;;-2.97;71.47;99577.50;6273650;28;19942;-74
2024/01/08 08:00:53;;;;;;;;;;;;;;;-3.00;71.49;99594.59;6274242;28;21785;-74
2024/01/08 08:03:53;;;;;;;;;;;;;;;-3.00;69.98;99600.53;6274038;28;20016;-74
2024/01/08 08:06:56;;;;;;;;;;;;;;;-2.67;70.25;99604.34;6274065;28;19920;-74
2024/01/08 08:09:59;;;;;;;;;;;;;;;-2.58;68.58;99608.47;6274603;28;19921;-74
2024/01/08 08:13:01;;;;;;;;;;;;;;;-2.36;68.74;99624.31;6273830;28;20376;-74
2024/01/08 08:16:04;;;;;;;;;;;;;;;-2.40;68.75;99624.41;6272728;28;20050;-74
2024/01/08 08:19:04;;;;;;;;;;;;;;;-2.44;68.45;99631.25;6273974;28;20391;-74
2024/01/08 08:22:07;;;;;;;;;;;;;;;-1.92;67.47;99630.44;6273640;28;19972;-74
2024/01/08 08:25:10;;;;;;;;;;;;;;;-2.28;67.31;99619.09;6273721;28;20410;-74
2024/01/08 08:28:13;;;;;;;;;;;;;;;-2.37;66.74;99640.50;6272415;28;19920;-74
2024/01/08 08:31:14;;;;;;;;;;;;;;;-2.58;66.79;99639.13;6273903;28;19921;-74
2024/01/08 08:34:15;;;;;;;;;;;;;;;-2.53;67.28;99645.00;6272239;28;19927;-74
2024/01/08 08:37:16;;;;;;;;;;;;;;;-2.52;66.48;99650.97;6273348;28;19925;-75
2024/01/08 08:40:19;;;;;;;;;;;;;;;-2.49;66.38;99653.47;6273265;28;19921;-75
2024/01/08 08:43:19;;;;;;;;;;;;;;;-2.35;66.21;99661.78;6273134;28;19947;-75
2024/01/08 08:46:20;;;;;;;;;;;;;;;-2.37;66.52;99642.22;6273314;28;20365;-75
2024/01/08 08:49:21;;;;;;;;;;;;;;;-2.50;65.71;99660.28;6271918;28;19921;-75
2024/01/08 08:52:22;;;;;;;;;;;;;;;-2.32;66.53;99666.84;6273079;28;20446;-75
2024/01/08 08:55:23;;;;;;;;;;;;;;;-2.14;66.01;99668.31;6272931;28;20021;-71
2024/01/08 08:58:24;;;;;;;;;;;;;;;-2.24;64.91;99656.53;6271659;28;19921;-71
2024/01/08 09:01:25;;;;;;;;;;;;;;;-2.18;65.47;99673.47;6272542;28;19921;-71
2024/01/08 09:04:28;;;;;;;;;;;;;;;-2.35;65.96;99663.50;6272916;28;20015;-71
2024/01/08 09:07:30;;;;;;;;;;;;;;;-2.12;65.73;99653.78;6272389;28;19932;-71
2024/01/08 09:10:30;;;;;;;;;;;;;;;-2.04;66.12;99661.31;6272764;28;19921;-71
2024/01/08 09:13:32;;;;;;;;;;;;;;;-2.20;66.26;99649.63;6271243;28;20304;-72
2024/01/08 09:16:35;;;;;;;;;;;;;;;-2.23;66.46;99655.66;6272404;28;20292;-71
2024/01/08 09:19:37;;;;;;;;;;;;;;;-2.34;66.92;99658.38;6272834;28;20337;-72
2024/01/08 09:22:38;;;;;;;;;;;;;;;-2.39;66.99;99665.25;6272216;28;19921;-71
2024/01/08 09:25:39;;;;;;;;;;;;;;;-2.61;67.09;99661.28;6272470;28;20064;-71
2024/01/08 09:28:39;;;;;;;;;;;;;;;-2.46;67.55;99659.38;6271096;28;19963;-71
2024/01/08 09:31:40;;;;;;;;;;;;;;;-2.55;67.25;99663.75;6271177;28;19920;-70
2024/01/08 09:34:41;;;;;;;;;;;;;;;-2.50;66.96;99650.06;6272117;28;19932;-71
2024/01/08 09:37:42;;;;;;;;;;;;;;;-2.24;67.45;99664.19;6270879;28;19921;-72
2024/01/08 09:40:43;;;;;;;;;;;;;;;-2.30;66.82;99666.84;6272667;28;19927;-71
2024/01/08 09:43:46;;;;;;;;;;;;;;;-2.44;66.29;99670.41;6272125;28;19943;-71
2024/01/08 09:46:49;;;;;;;;;;;;;;;-2.36;67.03;99666.94;6270800;28;19924;-71
2024/01/08 09:49:51;;;;;;;;;;;;;;;-2.37;66.68;99673.72;6272099;28;20007;-72
2024/01/08 09:52:53;;;;;;;;;;;;;;;-2.10;67.00;99661.41;6271778;28;19982;-71
2024/01/08 09:55:53;;;;;;;;;;;;;;;-2.17;67.58;99667.50;6270311;28;19959;-71
2024/01/08 09:58:54;;;;;;;;;;;;;;;-2.28;68.09;99667.66;6271699;28;20285;-76
2024/01/08 10:01:58;;;;;;;;;;;;;;;-2.66;67.14;99680.13;6271666;28;19921;-75
2024/01/08 10:04:59;;;;;;;;;;;;;;;-2.53;67.61;99682.47;6271785;28;20369;-75
2024/01/08 10:08:00;;;;;;;;;;;;;;;-2.56;67.40;99678.25;6272042;28;20387;-75
2024/01/08 10:11:03;;;;;;;;;;;;;;;-2.57;67.75;99680.81;6271767;28;19920;-76
2024/01/08 10:14:05;;;;;;;;;;;;;;;-2.41;67.19;99689.97;6271381;28;19920;-76
2024/01/08 10:17:06;;;;;;;;;;;;;;;-2.44;67.34;99682.34;6271700;28;19921;-75
2024/01/08 10:20:08;;;;;;;;;;;;;;;-2.65;67.63;99683.50;6273958;28;19967;-76
2024/01/08 10:23:09;;;;;;;;;;;;;;;-2.61;67.55;99691.94;6312418;28;19921;-76
2024/01/08 10:26:11;;;;;;;;;;;;;;;-2.36;67.94;99688.22;6278442;28;19924;-76
2024/01/08 10:29:12;;;;;;;;;;;;;;;-2.88;68.52;99697.41;6279461;28;19928;-75
2024/01/08 10:32:17;;;;;;;;;;;;;;;-2.56;68.34;99697.84;6279747;28;20015;-75
2024/01/08 10:35:19;;;;;;;;;;;;;;;-2.73;68.75;99690.41;6279327;28;19974;-75
2024/01/08 10:38:21;;;;;;;;;;;;;;;-2.67;68.29;99688.63;6278323;28;19931;-75
2024/01/08 10:41:23;;;;;;;;;;;;;;;-2.53;68.26;99700.34;6278402;28;19943;-76
2024/01/08 10:44:24;;;;;;;;;;;;;;;-2.84;67.76;99691.38;6279325;28;20327;-75
2024/01/08 10:47:26;;;;;;;;;;;;;;;-2.56;68.04;99691.03;6278104;28;20355;-76
2024/01/08 10:50:27;;;;;;;;;;;;;;;-2.68;67.00;99688.63;6279256;28;20324;-75
2024/01/08 10:53:35;;;;;;;;;;;;;;;-2.72;67.53;99700.63;6279174;28;19924;-75
2024/01/08 10:56:36;;;;;;;;;;;;;;;-2.55;67.39;99702.94;6278245;28;19920;-75
2024/01/08 10:59:39;;;;;;;;;;;;;;;-2.40;68.02;99709.56;6279281;28;19927;-76
2024/01/08 11:02:40;;;;;;;;;;;;;;;-2.58;67.15;99699.59;6277785;28;19924;-75
2024/01/08 11:05:47;;;;;;;;;;;;;;;-2.41;67.01;99720.63;6279110;28;20262;-76
2024/01/08 11:08:49;;;;;;;;;;;;;;;-2.75;66.67;99710.84;6277928;28;19967;-76
2024/01/08 11:11:49;;;;;;;;;;;;;;;-2.74;67.84;99712.56;6279128;28;20300;-75
2024/01/08 11:15:00;;;;;;;;;;;;;;;-2.61;67.30;99708.13;6279342;28;19927;-75
2024/01/08 11:18:02;;;;;;;;;;;;;;;-2.68;66.84;99709.06;6279190;28;19921;-75
2024/01/08 11:21:03;;;;;;;;;;;;;;;-2.70;67.25;99736.34;6278951;28;20016;-75
2024/01/08 11:24:04;;;;;;;;;;;;;;;-2.57;67.54;99727.66;6277815;28;19921;-76
2024/01/08 11:27:05;;;;;;;;;;;;;;;-2.35;67.32;99729.94;6277708;28;19928;-75
2024/01/08 11:30:06;;;;;;;;;;;;;;;-2.46;67.21;99730.91;6279363;28;20019;-75
2024/01/08 11:33:30;;;;;;;;;;;;;;;-2.35;67.70;99737.59;6275731;28;19965;-76
2024/01/08 11:36:45;;;;;;;;;;;;;;;-2.49;66.27;99737.78;6273689;28;19924;-76
2024/01/08 11:39:49;;;;;;;;;;;;;;;-2.24;66.31;99741.72;6274686;28;20356;-76
2024/01/08 11:42:50;;;;;;;;;;;;;;;-2.31;66.79;99750.31;6273617;28;19932;-76
2024/01/08 11:45:51;;;;;;;;;;;;;;;-2.47;67.11;99734.34;6273368;28;19970;-76
2024/01/08 11:48:51;;;;;;;;;;;;;;;-2.64;66.11;99744.78;6274951;28;19924;-76
2024/01/08 11:51:55;;;;;;;;;;;;;;;-2.70;66.69;99744.00;6274473;28;19921;-76
2024/01/08 11:54:56;;;;;;;;;;;;;;;-2.81;66.21;99743.28;6273245;28;20369;-75
2024/01/08 11:57:57;;;;;;;;;;;;;;;-2.55;66.75;99754.03;6273253;28;19927;-76
2024/01/08 12:00:57;;;;;;;;;;;;;;;-2.91;66.75;99756.16;6273143;28;19924;-75
2024/01/08 12:04:01;;;;;;;;;;;;;;;-2.86;67.40;99763.78;6274093;28;19921;-75
2024/01/08 12:07:02;;;;;;;;;;;;;;;-2.91;67.73;99766.34;6274197;28;19921;-75
2024/01/08 12:10:04;;;;;;;;;;;;;;;-2.69;67.88;99769.53;6274359;28;19928;-75
2024/01/08 12:13:07;;;;;;;;;;;;;;;-2.80;67.47;99768.81;6274134;28;19967;-76
2024/01/08 12:16:08;;;;;;;;;;;;;;;-2.98;66.82;99751.97;6274129;28;19921;-75
2024/01/08 12:19:12;;;;;;;;;;;;;;;-3.05;67.39;99766.53;6272767;28;20172;-75
2024/01/08 12:22:14;;;;;;;;;;;;;;;-3.05;67.61;99768.22;6273976;28;20292;-71
2024/01/08 12:25:14;;;;;;;;;;;;;;;-2.83;67.99;99779.88;6273719;28;19920;-71
2024/01/08 12:28:16;;;;;;;;;;;;;;;-2.74;67.56;99783.22;6273963;28;19929;-71
2024/01/08 12:31:18;;;;;;;;;;;;;;;-2.87;68.39;99773.13;6272597;28;19928;-71
2024/01/08 12:34:19;;;;;;;;;;;;;;;-2.68;67.51;99785.69;6273571;28;19927;-75
2024/01/08 12:37:20;;;;;;;;;;;;;;;-2.79;67.25;99784.97;6273531;28;19924;-71
2024/01/08 12:40:21;;;;;;;;;;;;;;;-2.92;67.43;99782.56;6273495;28;19964;-71
2024/01/08 12:43:22;;;;;;;;;;;;;;;-2.94;67.09;99784.28;6272862;28;19921;-71
2024/01/08 12:46:23;;;;;;;;;;;;;;;-2.99;67.79;99796.22;6272877;28;19928;-71
2024/01/08 12:49:24;;;;;;;;;;;;;;;-2.93;66.86;99800.44;6272062;28;19959;-75
2024/01/08 12:52:24;;;;;;;;;;;;;;;-2.84;67.03;99810.56;6272355;28;19921;-75
2024/01/08 12:55:25;;;;;;;;;;;;;;;-2.89;67.47;99813.16;6273300;28;19963;-75
2024/01/08 12:58:26;;;;;;;;;;;;;;;-2.96;67.89;99811.53;6273016;28;19921;-76
2024/01/08 13:01:27;;;;;;;;;;;;;;;-3.01;68.27;99828.59;6272760;28;19928;-76
2024/01/08 13:04:29;;;;;;;;;;;;;;;-3.18;67.67;99810.88;6272787;28;20331;-75
2024/01/08 13:07:31;;;;;;;;;;;;;;;-2.93;67.70;99825.97;6272491;28;19920;-76
2024/01/08 13:10:32;;;;;;;;;;;;;;;-3.08;67.48;99830.34;6271201;28;20007;-75
2024/01/08 13:13:34;;;;;;;;;;;;;;;-3.16;67.25;99832.13;6271328;28;20020;-75
2024/01/08 13:16:34;;;;;;;;;;;;;;;-2.98;67.88;99838.78;6272666;28;20268;-76
2024/01/08 13:19:35;;;;;;;;;;;;;;;-3.10;67.33;99849.94;6271206;28;19979;-75
2024/01/08 13:22:37;;;;;;;;;;;;;;;-2.96;67.53;99849.81;6272567;28;19921;-76
2024/01/08 13:25:41;;;;;;;;;;;;;;;-3.21;67.38;99838.13;6270993;28;19925;-75
2024/01/08 13:28:43;;;;;;;;;;;;;;;-2.96;67.94;99852.38;6272531;28;19921;-75
2024/01/08 13:31:48;;;;;;;;;;;;;;;-2.82;67.85;99870.13;6272226;28;20357;-76
2024/01/08 13:34:52;;;;;;;;;;;;;;;-2.91;67.33;99876.16;6271161;28;19925;-75
2024/01/08 13:37:53;;;;;;;;;;;;;;;-3.20;67.28;99884.06;6272259;28;20012;-76
2024/01/08 13:40:56;;;;;;;;;;;;;;;-3.49;67.50;99882.56;6271953;28;20288;-75
2024/01/08 13:44:02;;;;;;;;;;;;;;;-3.32;66.87;99877.31;6272153;28;19921;-75
2024/01/08 13:47:05;;;;;;;;;;;;;;;-3.13;67.13;99875.50;6271803;28;19920;-76
2024/01/08 13:50:07;;;;;;;;;;;;;;;-3.25;66.53;99896.84;6272136;28;19927;-76
2024/01/08 13:53:08;;;;;;;;;;;;;;;-3.26;67.01;99905.34;6271719;28;20330;-76
2024/01/08 13:56:09;;;;;;;;;;;;;;;-3.33;66.69;99903.72;6270004;28;19920;-75
2024/01/08 13:59:10;;;;;;;;;;;;;;;-3.30;66.49;99908.78;6271685;28;20023;-75
2024/01/08 14:02:12;;;;;;;;;;;;;;;-3.50;65.96;99900.41;6270172;28;20288;-75
2024/01/08 14:05:12;;;;;;;;;;;;;;;-3.28;66.06;99916.44;6271697;28;20012;-75
2024/01/08 14:08:13;;;;;;;;;;;;;;;-3.25;65.93;99913.88;6271794;28;19921;-75
2024/01/08 14:11:14;;;;;;;;;;;;;;;-3.22;66.07;99926.59;6271683;28;19927;-75
2024/01/08 14:14:14;;;;;;;;;;;;;;;-3.38;66.50;99930.09;6271496;28;19974;-75
2024/01/08 14:17:15;;;;;;;;;;;;;;;-3.32;66.45;99942.81;6271522;28;19920;-75
2024/01/08 14:20:16;;;;;;;;;;;;;;;-3.46;66.42;99937.81;6271307;28;19974;-75
2024/01/08 14:23:17;;;;;;;;;;;;;;;-3.27;67.00;99939.41;6271620;28;19920;-75
2024/01/08 14:26:17;;;;;;;;;;;;;;;-3.11;66.98;99947.81;6271162;28;19924;-75
2024/01/08 14:29:18;;;;;;;;;;;;;;;-3.27;67.09;99952.16;6270144;28;20019;-75
2024/01/08 14:32:19;;;;;;;;;;;;;;;-3.31;66.58;99953.03;6269997;28;20380;-75
2024/01/08 14:35:22;;;;;;;;;;;;;;;-3.46;66.91;99961.63;6270203;28;19970;-75
2024/01/08 14:38:23;;;;;;;;;;;;;;;-3.50;66.40;99970.16;6281096;28;19928;-75
2024/01/08 14:41:24;;;;;;;;;;;;;;;-3.47;66.98;99974.38;6294590;28;19920;-75
2024/01/08 14:44:25;;;;;;;;;;;;;;;-3.40;66.76;99973.47;6295625;28;19963;-75
2024/01/08 14:47:25;;;;;;;;;;;;;;;-3.45;67.06;99972.69;6295560;28;20403;-75
2024/01/08 14:50:26;;;;;;;;;;;;;;;-3.38;66.45;99978.59;6294717;28;19920;-75
2024/01/08 14:53:27;;;;;;;;;;;;;;;-3.61;66.58;99986.34;6295166;28;20521;-75
2024/01/08 14:56:28;;;;;;;;;;;;;;;-3.52;66.79;99987.16;6295728;28;19932;-76
2024/01/08 14:59:28;;;;;;;;;;;;;;;-3.73;66.83;99995.72;6295128;28;20019;-75
2024/01/08 15:02:31;;;;;;;;;;;;;;;-3.57;67.43;100006.72;6294237;28;19920;-75
2024/01/08 15:05:32;;;;;;;;;;;;;;;-3.85;66.81;100001.75;6295032;28;20460;-75
2024/01/08 15:08:33;;;;;;;;;;;;;;;-3.56;67.47;100007.56;6299400;28;19920;-75
2024/01/08 15:11:33;;;;;;;;;;;;;;;-3.83;67.51;100011.91;6298920;28;19920;-76
2024/01/08 15:14:34;;;;;;;;;;;;;;;-3.68;68.15;100018.69;6299467;28;20019;-75
2024/01/08 15:17:37;;;;;;;;;;;;;;;-3.74;68.04;100017.00;6299904;28;19920;-75
2024/01/08 15:20:38;;;;;;;;;;;;;;;-3.81;67.91;100017.84;6299957;28;19964;-76
2024/01/08 15:23:41;;;;;;;;;;;;;;;-3.56;67.42;100030.53;6299119;28;20360;-75
2024/01/08 15:26:42;;;;;;;;;;;;;;;-3.69;67.93;100024.63;6299843;28;20242;-75
2024/01/08 15:29:43;;;;;;;;;;;;;;;-3.77;68.60;100032.28;6299818;28;19927;-75
2024/01/08 15:32:44;;;;;;;;;;;;;;;-3.68;68.85;100034.84;6287522;28;20379;-75
2024/01/08 15:35:45;;;;;;;;;;;;;;;-3.63;68.87;100039.91;6285480;28;19925;-75
2024/01/08 15:38:46;;;;;;;;;;;;;;;-3.40;69.27;100052.56;6286831;28;20308;-76
2024/01/08 15:41:47;;;;;;;;;;;;;;;-3.79;68.75;100053.56;6294409;28;19928;-75